createdAt,value
2023-01-02T00:00:24.619Z,2.27
2023-01-02T00:05:30.149Z,3.07
2023-01-02T00:10:35.691Z,2.63
2023-01-02T00:15:41.389Z,2.73
2023-01-02T00:20:46.851Z,3.03
2023-01-02T00:25:52.239Z,2.57
2023-01-02T00:30:57.834Z,2.87
2023-01-02T00:36:08.588Z,3.47
2023-01-02T00:41:13.971Z,3.80
2023-01-02T00:46:19.544Z,3.30
2023-01-02T00:51:25.075Z,3.10
2023-01-02T00:56:30.471Z,2.40
2023-01-02T01:01:36.229Z,2.57
2023-01-02T01:06:42.029Z,3.00
2023-01-02T01:11:47.566Z,3.47
2023-01-02T01:16:52.948Z,2.67
2023-01-02T01:21:58.338Z,4.20
2023-01-02T01:27:03.791Z,4.13
2023-01-02T01:32:09.260Z,4.23
2023-01-02T01:37:15.098Z,4.37
2023-01-02T01:42:20.827Z,3.90
2023-01-02T01:47:44.070Z,4.20
2023-01-02T01:53:04.774Z,4.40
2023-01-02T01:58:15.543Z,4.30
2023-01-02T02:03:23.889Z,4.47
2023-01-02T02:08:44.157Z,4.43
2023-01-02T02:13:50.355Z,4.50
2023-01-02T02:19:21.948Z,4.90
2023-01-02T02:24:48.712Z,5.10
2023-01-02T02:30:12.320Z,4.90
2023-01-02T02:35:29.536Z,4.00
2023-01-02T02:40:57.747Z,4.30
2023-01-02T02:46:12.184Z,4.07
2023-01-02T02:51:23.842Z,4.03
2023-01-02T02:56:30.989Z,4.40
2023-01-02T03:01:38.174Z,4.33
2023-01-02T03:07:05.133Z,4.43
2023-01-02T03:12:16.810Z,4.30
2023-01-02T03:17:32.002Z,4.23
2023-01-02T03:22:40.501Z,4.60
2023-01-02T03:27:48.952Z,4.10
2023-01-02T03:32:57.386Z,4.43
2023-01-02T03:38:06.528Z,3.80
2023-01-02T03:43:17.658Z,4.63
2023-01-02T03:48:50.287Z,3.90
2023-01-02T03:53:56.049Z,3.80
2023-01-02T03:59:25.433Z,3.67
2023-01-02T04:04:58.116Z,4.43
2023-01-02T04:10:05.352Z,4.53
2023-01-02T04:15:16.159Z,4.10
2023-01-02T04:20:24.606Z,3.40
2023-01-02T04:25:33.019Z,4.63
2023-01-02T04:30:41.492Z,4.00
2023-01-02T04:35:47.059Z,2.97
2023-01-02T04:40:52.881Z,4.10
2023-01-02T04:45:58.360Z,3.87
2023-01-02T04:51:03.930Z,3.53
2023-01-02T04:56:09.707Z,4.53
2023-01-02T05:01:17.894Z,4.03
2023-01-02T05:06:23.380Z,3.87
2023-01-02T05:11:28.920Z,4.77
2023-01-02T05:16:34.379Z,4.37
2023-01-02T05:21:58.132Z,4.23
2023-01-02T05:27:03.664Z,4.30
2023-01-02T05:32:09.115Z,4.07
2023-01-02T05:37:14.576Z,4.10
2023-01-02T05:42:20.039Z,4.50
2023-01-02T05:47:26.439Z,3.87
2023-01-02T05:52:31.827Z,4.10
2023-01-02T05:57:37.360Z,4.57
2023-01-02T06:02:47.666Z,3.63
2023-01-02T06:07:50.162Z,4.47
2023-01-02T06:12:55.619Z,4.47
2023-01-02T06:18:01.460Z,4.10
2023-01-02T06:23:07.047Z,3.70
2023-01-02T06:28:12.438Z,4.33
2023-01-02T06:33:17.896Z,4.27
2023-01-02T06:38:23.280Z,4.07
2023-01-02T06:43:30.641Z,3.97
2023-01-02T06:48:36.514Z,3.63
2023-01-02T06:53:43.729Z,3.70
2023-01-02T06:58:49.644Z,3.53
2023-01-02T07:03:55.977Z,3.53
2023-01-02T07:09:01.483Z,4.10
2023-01-02T07:14:08.416Z,3.40
2023-01-02T07:19:13.881Z,3.60
2023-01-02T07:24:19.278Z,3.90
2023-01-02T07:29:24.764Z,3.83
2023-01-02T07:34:31.574Z,4.03
2023-01-02T07:39:37.023Z,3.30
2023-01-02T07:44:42.490Z,3.60
2023-01-02T07:50:01.750Z,4.13
2023-01-02T07:55:08.149Z,3.73
2023-01-02T08:00:14.536Z,3.53
2023-01-02T08:05:20.396Z,3.20
2023-01-02T08:10:25.927Z,3.33
2023-01-02T08:15:31.447Z,4.07
2023-01-02T08:20:36.909Z,2.93
2023-01-02T08:25:43.541Z,3.40
2023-01-02T08:30:49.051Z,3.20
2023-01-02T08:35:55.722Z,2.57
2023-01-02T08:41:01.384Z,3.10
2023-01-02T08:46:11.084Z,3.03
2023-01-02T08:51:16.775Z,3.73
2023-01-02T08:56:28.192Z,2.53
2023-01-02T09:01:34.816Z,3.33
2023-01-02T09:06:40.693Z,3.27
2023-01-02T09:11:52.530Z,3.10
2023-01-02T09:16:58.231Z,3.30
2023-01-02T09:22:04.384Z,3.00
2023-01-02T09:27:09.913Z,3.20
2023-01-02T09:32:15.382Z,2.70
2023-01-02T09:37:20.846Z,3.23
2023-01-02T09:42:26.603Z,3.47
2023-01-02T09:47:33.007Z,2.23
2023-01-02T09:52:47.490Z,2.97
2023-01-02T09:57:55.920Z,2.50
2023-01-02T10:03:26.736Z,2.67
2023-01-02T10:08:54.947Z,2.53
2023-01-02T10:14:20.516Z,2.53
2023-01-02T10:19:22.085Z,3.08
2023-01-02T10:24:48.617Z,2.33
2023-01-02T10:29:57.203Z,2.70
2023-01-02T10:35:08.352Z,2.60
2023-01-02T10:40:13.986Z,2.77
2023-01-02T10:45:19.613Z,2.40
2023-01-02T10:50:28.135Z,2.83
2023-01-02T10:55:36.867Z,2.23
2023-01-02T11:00:42.388Z,2.53
2023-01-02T11:06:02.093Z,2.80
2023-01-02T11:11:05.262Z,2.97
2023-01-02T11:16:14.613Z,2.80
2023-01-02T11:21:28.853Z,2.20
2023-01-02T11:26:36.152Z,2.63
2023-01-02T11:31:58.465Z,2.30
2023-01-02T11:37:06.984Z,2.40
2023-01-02T11:42:36.049Z,2.40
2023-01-02T11:47:50.779Z,2.65
2023-01-02T11:52:59.282Z,2.37
2023-01-02T11:58:10.701Z,2.60
2023-01-02T12:03:30.026Z,2.30
2023-01-02T12:08:53.376Z,2.07
2023-01-02T12:14:16.912Z,2.30
2023-01-02T12:19:42.262Z,2.20
2023-01-02T12:24:59.962Z,2.20
2023-01-02T12:30:20.506Z,2.23
2023-01-02T12:35:36.011Z,2.20
2023-01-02T12:41:13.435Z,1.90
2023-01-02T12:46:30.755Z,1.90
2023-01-02T12:51:47.481Z,2.33
2023-01-02T12:57:07.854Z,1.77
2023-01-02T13:02:32.697Z,1.87
2023-01-02T13:07:45.875Z,1.90
2023-01-02T13:12:52.417Z,1.87
2023-01-02T13:18:21.995Z,1.53
2023-01-02T13:23:36.056Z,1.90
2023-01-02T13:28:44.588Z,2.23
2023-01-02T13:33:52.717Z,1.83
2023-01-02T13:39:01.289Z,1.80
2023-01-02T13:44:07.114Z,1.87
2023-01-02T13:49:15.628Z,2.20
2023-01-02T13:54:21.654Z,2.10
2023-01-02T13:59:41.928Z,1.73
2023-01-02T14:04:38.581Z,2.50
2023-01-02T14:10:05.205Z,2.30
2023-01-02T14:15:13.689Z,2.57
2023-01-02T14:20:24.743Z,2.30
2023-01-02T14:25:32.464Z,2.30
2023-01-02T14:30:40.490Z,2.20
2023-01-02T14:35:58.629Z,2.13
2023-01-02T14:41:21.916Z,2.00
2023-01-02T14:46:29.227Z,2.30
2023-01-02T14:51:46.659Z,2.20
2023-01-02T14:56:58.087Z,2.20
2023-01-02T15:02:09.828Z,2.60
2023-01-02T15:07:24.549Z,2.00
2023-01-02T15:12:50.283Z,2.20
2023-01-02T15:17:58.730Z,2.73
2023-01-02T15:23:05.361Z,1.93
2023-01-02T15:28:34.777Z,2.50
2023-01-02T15:33:40.726Z,2.10
2023-01-02T15:38:46.858Z,2.83
2023-01-02T15:44:12.670Z,2.70
2023-01-02T15:49:18.826Z,2.67
2023-01-02T15:54:24.709Z,2.13
2023-01-02T15:59:32.749Z,1.53
2023-01-02T16:04:38.206Z,1.27
2023-01-02T16:09:46.646Z,1.30
2023-01-02T16:14:55.891Z,1.43
2023-01-02T16:20:11.926Z,1.40
2023-01-02T16:25:26.368Z,1.17
2023-01-02T16:30:40.825Z,1.27
2023-01-02T16:35:48.195Z,1.20
2023-01-02T16:41:05.192Z,1.50
2023-01-02T16:46:14.037Z,1.10
2023-01-02T16:51:19.611Z,0.87
2023-01-02T16:56:25.156Z,1.73
2023-01-02T17:01:31.569Z,1.07
2023-01-02T17:06:37.361Z,1.30
2023-01-02T17:11:44.916Z,1.40
2023-01-02T17:16:50.437Z,1.00
2023-01-02T17:21:55.958Z,1.30
2023-01-02T17:27:01.587Z,1.00
2023-01-02T17:32:07.410Z,0.73
2023-01-02T17:37:12.948Z,0.87
2023-01-02T17:42:18.420Z,0.50
2023-01-02T17:47:58.298Z,0.57
2023-01-02T17:52:32.001Z,0.50
2023-01-02T17:57:39.637Z,0.90
2023-01-02T18:02:45.372Z,0.50
2023-01-02T18:07:51.145Z,0.53
2023-01-02T18:12:56.668Z,0.67
2023-01-02T18:18:05.114Z,0.50
2023-01-02T18:23:15.138Z,0.70
2023-01-02T18:28:26.185Z,0.60
2023-01-02T18:33:33.203Z,0.83
2023-01-02T18:38:41.600Z,0.60
2023-01-02T18:43:49.791Z,0.70
2023-01-02T18:48:55.303Z,0.53
2023-01-02T18:54:00.937Z,0.60
2023-01-02T18:59:25.976Z,0.70
2023-01-02T19:04:34.447Z,0.57
2023-01-02T19:09:40.079Z,0.43
2023-01-02T19:14:46.015Z,0.60
2023-01-02T19:19:52.151Z,0.93
2023-01-02T19:25:05.222Z,1.00
2023-01-02T19:30:31.139Z,1.53
2023-01-02T19:35:40.036Z,0.70
2023-01-02T19:40:45.502Z,0.77
2023-01-02T19:45:51.434Z,1.00
2023-01-02T19:50:57.079Z,1.17
2023-01-02T19:56:02.498Z,0.90
2023-01-02T20:01:08.183Z,1.10
2023-01-02T20:06:13.672Z,1.23
2023-01-02T20:11:26.368Z,0.80
2023-01-02T20:16:32.171Z,1.00
2023-01-02T20:21:37.636Z,0.80
2023-01-02T20:26:43.117Z,1.00
2023-01-02T20:31:49.317Z,1.00
2023-01-02T20:36:55.042Z,0.80
2023-01-02T20:42:00.546Z,0.67
2023-01-02T20:47:06.172Z,0.70
2023-01-02T20:52:11.933Z,0.67
2023-01-02T20:57:18.511Z,0.63
2023-01-02T21:02:24.245Z,0.80
2023-01-02T21:07:29.876Z,0.60
2023-01-02T21:12:53.063Z,0.70
2023-01-02T21:17:58.548Z,0.93
2023-01-02T21:23:04.325Z,1.10
2023-01-02T21:28:11.589Z,0.87
2023-01-02T21:33:19.521Z,1.03
2023-01-02T21:38:26.619Z,0.70
2023-01-02T21:43:32.131Z,1.37
2023-01-02T21:48:38.355Z,0.80
2023-01-02T21:53:44.225Z,0.80
2023-01-02T21:58:49.873Z,0.90
2023-01-02T22:03:57.093Z,0.73
2023-01-02T22:09:03.208Z,0.90
2023-01-02T22:14:08.819Z,0.90
2023-01-02T22:19:14.503Z,1.10
2023-01-02T22:24:22.950Z,0.80
2023-01-02T22:30:00.556Z,0.63
2023-01-02T22:34:38.752Z,0.70
2023-01-02T22:39:44.281Z,0.30
2023-01-02T22:44:51.125Z,0.73
2023-01-02T22:49:57.557Z,0.60
2023-01-02T22:55:09.020Z,0.60
2023-01-02T23:00:15.305Z,0.57
2023-01-02T23:05:22.332Z,0.53
2023-01-02T23:10:27.849Z,0.60
2023-01-02T23:15:33.322Z,0.50
2023-01-02T23:20:38.764Z,0.80
2023-01-02T23:25:44.907Z,0.50
2023-01-02T23:30:50.303Z,0.70
2023-01-02T23:35:55.847Z,0.70
2023-01-02T23:41:04.665Z,0.60
2023-01-02T23:46:10.121Z,0.80
2023-01-02T23:51:15.845Z,0.80
2023-01-02T23:56:27.237Z,0.83
